createdAt,value
2022-09-12T00:01:14.864Z,9.05
2022-09-12T00:03:45.094Z,10.15
2022-09-12T00:06:33.468Z,11.40
2022-09-12T00:09:03.663Z,9.05
2022-09-12T00:11:37.078Z,7.85
2022-09-12T00:14:06.314Z,10.40
2022-09-12T00:16:35.877Z,15.82
2022-09-12T00:19:05.090Z,8.75
2022-09-12T00:21:34.572Z,7.57
2022-09-12T00:24:02.199Z,10.77
2022-09-12T00:26:29.694Z,10.55
2022-09-12T00:28:57.142Z,13.07
2022-09-12T00:31:26.070Z,10.07
2022-09-12T00:33:56.323Z,6.45
2022-09-12T00:36:25.297Z,18.02
2022-09-12T00:38:53.704Z,10.57
2022-09-12T00:41:24.760Z,11.02
2022-09-12T00:43:58.642Z,7.25
2022-09-12T00:46:36.291Z,13.57
2022-09-12T00:49:13.010Z,6.97
2022-09-12T00:51:43.949Z,12.80
2022-09-12T00:54:14.633Z,14.38
2022-09-12T00:56:43.689Z,10.07
2022-09-12T00:59:15.741Z,9.07
2022-09-12T01:01:45.517Z,12.85
2022-09-12T01:04:14.193Z,13.95
2022-09-12T01:06:43.589Z,12.57
2022-09-12T01:09:16.946Z,11.45
2022-09-12T01:11:47.116Z,7.40
2022-09-12T01:14:17.197Z,8.05
2022-09-12T01:16:45.349Z,11.57
2022-09-12T01:19:43.970Z,9.48
2022-09-12T01:22:39.955Z,9.90
2022-09-12T01:25:34.049Z,10.57
2022-09-12T01:28:14.735Z,11.95
2022-09-12T01:30:45.943Z,12.93
2022-09-12T01:33:48.595Z,9.40
2022-09-12T01:36:36.778Z,11.10
2022-09-12T01:39:07.013Z,11.02
2022-09-12T01:41:43.993Z,8.43
2022-09-12T01:44:20.013Z,10.75
2022-09-12T01:46:49.250Z,11.98
2022-09-12T01:49:21.975Z,10.13
2022-09-12T01:51:53.658Z,14.63
2022-09-12T01:54:26.377Z,10.52
2022-09-12T01:56:56.251Z,10.48
2022-09-12T01:59:41.332Z,10.48
2022-09-12T02:02:16.444Z,11.05
2022-09-12T02:04:55.972Z,11.10
2022-09-12T02:07:28.031Z,7.88
2022-09-12T02:10:00.965Z,8.37
2022-09-12T02:12:37.422Z,8.52
2022-09-12T02:15:08.144Z,9.73
2022-09-12T02:17:38.803Z,8.75
2022-09-12T02:20:25.962Z,9.32
2022-09-12T02:23:06.465Z,11.27
2022-09-12T02:25:36.159Z,11.95
2022-09-12T02:28:25.184Z,14.63
2022-09-12T02:31:04.728Z,9.95
2022-09-12T02:33:41.155Z,10.55
2022-09-12T02:36:08.955Z,12.45
2022-09-12T02:38:45.636Z,10.00
2022-09-12T02:41:16.972Z,11.35
2022-09-12T02:43:44.243Z,9.45
2022-09-12T02:46:18.284Z,13.02
2022-09-12T02:48:45.754Z,8.82
2022-09-12T02:51:13.193Z,8.38
2022-09-12T02:53:42.169Z,9.40
2022-09-12T02:56:13.689Z,10.02
2022-09-12T02:58:41.038Z,11.25
2022-09-12T03:01:30.135Z,7.97
2022-09-12T03:04:03.787Z,11.18
2022-09-12T03:06:34.679Z,14.15
2022-09-12T03:09:23.334Z,15.30
2022-09-12T03:11:53.299Z,10.25
2022-09-12T03:14:41.758Z,9.18
2022-09-12T03:17:25.271Z,8.10
2022-09-12T03:20:21.868Z,13.18
2022-09-12T03:23:18.078Z,11.85
2022-09-12T03:26:02.918Z,9.95
2022-09-12T03:28:31.409Z,12.57
2022-09-12T03:30:59.750Z,15.70
2022-09-12T03:33:27.239Z,12.02
2022-09-12T03:35:55.485Z,16.67
2022-09-12T03:38:23.338Z,15.18
2022-09-12T03:40:54.726Z,13.35
2022-09-12T03:43:23.002Z,19.70
2022-09-12T03:45:53.490Z,10.80
2022-09-12T03:48:21.403Z,12.85
2022-09-12T03:50:49.009Z,16.10
2022-09-12T03:53:17.457Z,14.20
2022-09-12T03:55:45.299Z,16.67
2022-09-12T03:58:12.728Z,11.95
2022-09-12T04:00:41.195Z,18.27
2022-09-12T04:03:09.082Z,15.73
2022-09-12T04:05:36.801Z,14.70
2022-09-12T04:08:04.513Z,18.15
2022-09-12T04:10:32.143Z,17.33
2022-09-12T04:12:59.629Z,13.27
2022-09-12T04:15:27.041Z,12.90
2022-09-12T04:17:54.293Z,12.38
2022-09-12T04:20:21.560Z,10.48
2022-09-12T04:22:49.320Z,9.27
2022-09-12T04:25:17.411Z,8.93
2022-09-12T04:27:44.759Z,13.52
2022-09-12T04:30:12.861Z,13.52
2022-09-12T04:32:41.152Z,14.98
2022-09-12T04:35:08.642Z,14.40
2022-09-12T04:37:36.269Z,15.35
2022-09-12T04:40:03.773Z,17.42
2022-09-12T04:42:31.091Z,16.30
2022-09-12T04:44:58.710Z,12.88
2022-09-12T04:47:25.937Z,14.52
2022-09-12T04:49:53.296Z,17.48
2022-09-12T04:52:21.588Z,14.15
2022-09-12T04:54:49.035Z,15.10
2022-09-12T04:57:16.330Z,19.83
2022-09-12T04:59:43.783Z,15.85
2022-09-12T05:02:11.261Z,18.85
2022-09-12T05:04:38.602Z,20.75
2022-09-12T05:07:06.083Z,12.93
2022-09-12T05:09:33.567Z,12.88
2022-09-12T05:12:05.512Z,16.50
2022-09-12T05:14:34.863Z,13.15
2022-09-12T05:17:02.586Z,17.77
2022-09-12T05:19:30.975Z,11.07
2022-09-12T05:21:59.253Z,13.93
2022-09-12T05:24:26.993Z,17.38
2022-09-12T05:26:54.769Z,10.38
2022-09-12T05:29:22.284Z,15.57
2022-09-12T05:31:52.100Z,13.75
2022-09-12T05:34:20.175Z,13.20
2022-09-12T05:36:47.983Z,14.07
2022-09-12T05:39:15.491Z,13.07
2022-09-12T05:41:42.784Z,12.02
2022-09-12T05:44:14.312Z,14.38
2022-09-12T05:46:44.077Z,11.93
2022-09-12T05:49:13.408Z,12.25
2022-09-12T05:51:43.452Z,14.27
2022-09-12T05:54:14.312Z,13.23
2022-09-12T05:56:44.830Z,12.10
2022-09-12T05:59:20.271Z,14.00
2022-09-12T06:01:48.751Z,18.45
2022-09-12T06:04:17.033Z,11.85
2022-09-12T06:06:45.589Z,11.07
2022-09-12T06:09:15.762Z,16.35
2022-09-12T06:11:43.884Z,17.63
2022-09-12T06:14:15.863Z,14.70
2022-09-12T06:16:43.557Z,13.03
2022-09-12T06:19:18.831Z,11.82
2022-09-12T06:21:49.776Z,13.27
2022-09-12T06:24:18.803Z,14.98
2022-09-12T06:26:47.702Z,14.40
2022-09-12T06:29:16.039Z,14.05
2022-09-12T06:31:44.098Z,16.15
2022-09-12T06:34:14.188Z,18.17
2022-09-12T06:36:45.639Z,18.52
2022-09-12T06:39:18.532Z,17.50
2022-09-12T06:41:47.146Z,12.68
2022-09-12T06:44:21.205Z,12.00
2022-09-12T06:46:49.345Z,13.02
2022-09-12T06:49:17.933Z,11.40
2022-09-12T06:51:45.493Z,16.92
2022-09-12T06:54:14.700Z,14.50
2022-09-12T06:56:42.183Z,16.60
2022-09-12T06:59:09.812Z,13.43
2022-09-12T07:01:37.754Z,13.70
2022-09-12T07:04:05.762Z,12.02
2022-09-12T07:06:41.969Z,11.60
2022-09-12T07:09:13.197Z,13.30
2022-09-12T07:11:41.866Z,17.05
2022-09-12T07:14:13.002Z,11.63
2022-09-12T07:16:40.901Z,12.65
2022-09-12T07:19:08.574Z,11.10
2022-09-12T07:21:40.021Z,15.68
2022-09-12T07:24:09.946Z,10.43
2022-09-12T07:26:38.400Z,9.45
2022-09-12T07:29:34.865Z,11.48
2022-09-12T07:31:53.902Z,11.35
2022-09-12T07:34:21.397Z,10.82
2022-09-12T07:36:48.504Z,11.52
2022-09-12T07:39:16.174Z,13.00
2022-09-12T07:41:43.422Z,13.32
2022-09-12T07:44:10.887Z,12.13
2022-09-12T07:46:40.237Z,11.65
2022-09-12T07:49:08.510Z,13.40
2022-09-12T07:51:36.206Z,11.55
2022-09-12T07:54:08.179Z,10.60
2022-09-12T07:56:39.123Z,15.60
2022-09-12T07:59:08.495Z,10.43
2022-09-12T08:01:36.142Z,9.95
2022-09-12T08:04:05.389Z,10.20
2022-09-12T08:06:36.172Z,15.30
2022-09-12T08:09:05.127Z,9.73
2022-09-12T08:11:33.336Z,12.90
2022-09-12T08:14:03.216Z,11.73
2022-09-12T08:16:31.699Z,8.48
2022-09-12T08:19:02.269Z,13.07
2022-09-12T08:21:31.380Z,10.55
2022-09-12T08:24:04.136Z,10.45
2022-09-12T08:26:34.263Z,9.60
2022-09-12T08:29:02.639Z,8.10
2022-09-12T08:31:32.167Z,9.57
2022-09-12T08:34:01.063Z,7.47
2022-09-12T08:36:29.765Z,9.07
2022-09-12T08:39:04.951Z,9.93
2022-09-12T08:41:36.648Z,10.27
2022-09-12T08:44:28.661Z,11.10
2022-09-12T08:47:14.865Z,9.90
2022-09-12T08:49:51.677Z,9.50
2022-09-12T08:52:29.938Z,8.23
2022-09-12T08:54:57.566Z,13.40
2022-09-12T08:57:25.384Z,10.70
2022-09-12T08:59:53.617Z,8.13
2022-09-12T09:02:39.883Z,7.25
2022-09-12T09:05:16.506Z,10.10
2022-09-12T09:08:16.108Z,12.40
2022-09-12T09:11:11.712Z,7.30
2022-09-12T09:14:09.924Z,7.68
2022-09-12T09:16:42.412Z,6.45
2022-09-12T09:19:15.753Z,10.88
2022-09-12T09:21:53.826Z,10.00
2022-09-12T09:24:26.491Z,9.43
2022-09-12T09:29:31.059Z,6.70
2022-09-12T09:32:00.605Z,9.48
2022-09-12T09:34:34.558Z,15.27
2022-09-12T09:37:15.678Z,16.30
2022-09-12T09:39:55.073Z,9.75
2022-09-12T09:42:50.219Z,10.82
2022-09-12T09:45:21.041Z,10.68
2022-09-12T09:48:25.049Z,14.93
2022-09-12T09:53:43.933Z,8.32
2022-09-12T09:56:36.327Z,9.68
2022-09-12T09:59:15.712Z,8.27
2022-09-12T10:01:57.768Z,8.55
2022-09-12T10:04:27.548Z,8.45
2022-09-12T10:06:57.532Z,9.40
2022-09-12T10:09:36.332Z,5.57
2022-09-12T10:12:28.472Z,8.73
2022-09-12T10:15:01.356Z,9.00
2022-09-12T10:17:41.759Z,11.15
2022-09-12T10:20:32.405Z,11.23
2022-09-12T10:23:01.953Z,6.22
2022-09-12T10:25:29.308Z,8.73
2022-09-12T10:27:59.103Z,10.80
2022-09-12T10:30:28.825Z,8.02
2022-09-12T10:33:11.923Z,9.00
2022-09-12T10:35:45.339Z,7.07
2022-09-12T10:41:10.649Z,7.97
2022-09-12T10:43:42.481Z,7.05
2022-09-12T10:46:18.602Z,6.65
2022-09-12T10:48:48.501Z,8.63
2022-09-12T10:51:27.850Z,8.57
2022-09-12T10:53:58.217Z,8.65
2022-09-12T10:57:03.740Z,8.90
2022-09-12T10:59:52.009Z,7.30
2022-09-12T11:02:56.920Z,7.68
2022-09-12T11:05:36.816Z,8.93
2022-09-12T11:08:12.978Z,4.90
2022-09-12T11:10:58.654Z,5.35
2022-09-12T11:14:03.573Z,17.02
2022-09-12T11:16:41.092Z,14.27
2022-09-12T11:19:35.246Z,6.63
2022-09-12T11:22:07.338Z,9.15
2022-09-12T11:24:50.070Z,8.02
2022-09-12T11:27:39.730Z,8.00
2022-09-12T11:30:13.380Z,5.55
2022-09-12T11:33:05.901Z,8.27
2022-09-12T11:35:35.848Z,7.63
2022-09-12T11:38:21.753Z,9.75
2022-09-12T11:40:54.472Z,7.75
2022-09-12T11:43:37.520Z,7.60
2022-09-12T11:46:18.445Z,5.38
2022-09-12T11:48:52.067Z,7.82
2022-09-12T11:53:58.672Z,9.05
2022-09-12T11:56:26.298Z,10.63
2022-09-12T11:59:09.073Z,6.65
2022-09-12T12:01:43.880Z,10.50
2022-09-12T12:04:18.583Z,7.10
2022-09-12T12:07:08.003Z,5.13
2022-09-12T12:09:35.913Z,7.25
2022-09-12T12:12:08.199Z,4.65
2022-09-12T12:14:43.877Z,6.85
2022-09-12T12:17:22.897Z,4.93
2022-09-12T12:20:08.451Z,7.40
2022-09-12T12:22:37.378Z,9.68
2022-09-12T12:25:13.007Z,6.65
2022-09-12T12:28:02.074Z,6.45
2022-09-12T12:30:29.755Z,6.00
2022-09-12T12:33:13.225Z,7.70
2022-09-12T12:35:42.083Z,6.80
2022-09-12T12:38:31.184Z,5.25
2022-09-12T12:41:18.739Z,7.07
2022-09-12T12:43:56.410Z,5.55
2022-09-12T12:46:28.683Z,7.22
2022-09-12T12:49:19.376Z,5.43
2022-09-12T12:52:01.653Z,4.85
2022-09-12T12:54:49.749Z,3.88
2022-09-12T12:57:23.772Z,5.72
2022-09-12T12:59:55.367Z,5.05
2022-09-12T13:02:42.138Z,16.88
2022-09-12T13:05:24.738Z,6.10
2022-09-12T13:07:58.773Z,9.57
2022-09-12T13:10:29.479Z,9.73
2022-09-12T13:13:05.405Z,5.38
2022-09-12T13:15:36.090Z,4.32
2022-09-12T13:18:10.420Z,6.93
2022-09-12T13:21:15.007Z,8.52
2022-09-12T13:23:43.196Z,6.15
2022-09-12T13:26:22.492Z,4.22
2022-09-12T13:28:51.739Z,8.32
2022-09-12T13:31:28.642Z,6.40
2022-09-12T13:33:58.947Z,6.45
2022-09-12T13:36:37.648Z,10.80
2022-09-12T13:39:19.734Z,5.68
2022-09-12T13:42:18.640Z,6.07
2022-09-12T13:44:50.075Z,6.82
2022-09-12T13:47:44.335Z,6.80
2022-09-12T13:50:33.672Z,4.45
2022-09-12T13:53:07.986Z,3.85
2022-09-12T13:55:39.445Z,5.95
2022-09-12T13:58:24.151Z,6.45
2022-09-12T14:01:10.360Z,5.22
2022-09-12T14:04:02.048Z,4.93
2022-09-12T14:06:37.463Z,5.88
2022-09-12T14:09:13.853Z,5.88
2022-09-12T14:11:42.314Z,5.45
2022-09-12T14:14:32.851Z,6.43
2022-09-12T14:17:02.794Z,3.80
2022-09-12T14:19:30.809Z,5.15
2022-09-12T14:21:59.364Z,3.72
2022-09-12T14:24:26.802Z,7.38
2022-09-12T14:26:57.040Z,7.82
2022-09-12T14:29:25.533Z,4.75
2022-09-12T14:32:05.995Z,8.88
2022-09-12T14:34:33.777Z,5.88
2022-09-12T14:37:06.787Z,4.95
2022-09-12T14:39:40.460Z,9.63
2022-09-12T14:42:21.210Z,4.05
2022-09-12T14:44:57.448Z,5.60
2022-09-12T14:47:27.457Z,6.60
2022-09-12T14:49:55.565Z,4.22
2022-09-12T14:52:33.343Z,7.80
2022-09-12T14:55:16.309Z,3.80
2022-09-12T14:57:44.681Z,5.88
2022-09-12T15:00:12.632Z,8.63
2022-09-12T15:02:40.853Z,6.80
2022-09-12T15:05:08.321Z,7.30
2022-09-12T15:07:38.307Z,5.93
2022-09-12T15:10:18.284Z,6.35
2022-09-12T15:12:46.260Z,7.53
2022-09-12T15:15:19.126Z,6.35
2022-09-12T15:20:14.953Z,7.75
2022-09-12T15:22:42.683Z,7.53
2022-09-12T15:25:12.092Z,6.60
2022-09-12T15:27:41.009Z,6.53
2022-09-12T15:30:10.470Z,6.57
2022-09-12T15:32:38.305Z,5.00
2022-09-12T15:35:17.126Z,5.35
2022-09-12T15:37:45.176Z,10.55
2022-09-12T15:40:13.530Z,7.65
2022-09-12T15:42:41.625Z,12.05
2022-09-12T15:45:28.992Z,14.10
2022-09-12T15:47:56.676Z,7.55
2022-09-12T15:50:25.015Z,10.35
2022-09-12T15:52:52.792Z,9.00
2022-09-12T15:55:22.851Z,10.27
2022-09-12T15:57:51.149Z,9.02
2022-09-12T16:00:19.444Z,11.57
2022-09-12T16:02:48.245Z,11.85
2022-09-12T16:05:20.133Z,11.07
2022-09-12T16:07:47.781Z,10.95
2022-09-12T16:10:19.674Z,10.32
2022-09-12T16:12:47.530Z,12.63
2022-09-12T16:15:18.468Z,8.32
2022-09-12T16:17:45.976Z,12.27
2022-09-12T16:20:14.095Z,10.60
2022-09-12T16:22:41.945Z,8.88
2022-09-12T16:25:09.812Z,11.18
2022-09-12T16:27:37.767Z,16.98
2022-09-12T16:30:07.368Z,13.98
2022-09-12T16:32:35.821Z,8.85
2022-09-12T16:35:04.361Z,14.85
2022-09-12T16:37:34.757Z,11.77
2022-09-12T16:40:03.197Z,9.15
2022-09-12T16:42:31.137Z,9.80
2022-09-12T16:44:58.886Z,11.25
2022-09-12T16:47:27.134Z,10.73
2022-09-12T16:49:54.967Z,14.68
2022-09-12T16:52:22.455Z,11.13
2022-09-12T16:54:49.807Z,14.52
2022-09-12T16:57:17.588Z,13.57
2022-09-12T16:59:46.192Z,13.70
2022-09-12T17:02:14.516Z,13.27
2022-09-12T17:04:42.106Z,14.60
2022-09-12T17:07:09.531Z,13.35
2022-09-12T17:09:36.941Z,12.50
2022-09-12T17:12:05.798Z,14.15
2022-09-12T17:14:33.333Z,11.05
2022-09-12T17:17:00.765Z,13.60
2022-09-12T17:19:30.045Z,13.48
2022-09-12T17:21:58.050Z,13.85
2022-09-12T17:24:26.088Z,12.68
2022-09-12T17:26:53.930Z,10.80
2022-09-12T17:29:21.563Z,14.70
2022-09-12T17:31:49.829Z,12.95
2022-09-12T17:34:17.871Z,16.48
2022-09-12T17:36:45.883Z,17.27
2022-09-12T17:39:14.486Z,17.00
2022-09-12T17:41:42.979Z,22.63
2022-09-12T17:44:15.317Z,15.65
2022-09-12T17:46:44.845Z,18.92
2022-09-12T17:49:14.654Z,19.30
2022-09-12T17:51:44.078Z,19.98
2022-09-12T17:54:16.280Z,19.83
2022-09-12T17:56:49.840Z,20.75
2022-09-12T17:59:21.632Z,23.65
2022-09-12T18:02:07.912Z,20.77
2022-09-12T18:04:36.070Z,22.83
2022-09-12T18:07:05.136Z,23.45
2022-09-12T18:09:32.925Z,22.70
2022-09-12T18:12:00.622Z,18.15
2022-09-12T18:14:28.932Z,20.20
2022-09-12T18:17:00.406Z,22.67
2022-09-12T18:19:28.494Z,22.95
2022-09-12T18:21:56.222Z,19.90
2022-09-12T18:24:25.049Z,20.75
2022-09-12T18:26:53.219Z,19.98
2022-09-12T18:29:20.872Z,15.80
2022-09-12T18:31:49.053Z,22.58
2022-09-12T18:34:17.511Z,19.00
2022-09-12T18:36:47.034Z,19.98
2022-09-12T18:39:14.869Z,20.10
2022-09-12T18:41:42.608Z,23.48
2022-09-12T18:44:11.668Z,28.00
2022-09-12T18:46:39.315Z,30.17
2022-09-12T18:49:07.916Z,24.70
2022-09-12T18:51:36.736Z,25.67
2022-09-12T18:54:06.789Z,24.95
2022-09-12T18:56:37.805Z,26.10
2022-09-12T18:59:06.744Z,23.40
2022-09-12T19:01:37.180Z,26.20
2022-09-12T19:04:06.572Z,33.63
2022-09-12T19:06:36.539Z,23.33
2022-09-12T19:09:08.184Z,24.02
2022-09-12T19:11:38.871Z,30.98
2022-09-12T19:14:07.825Z,34.30
2022-09-12T19:16:35.692Z,29.88
2022-09-12T19:19:03.995Z,24.60
2022-09-12T19:21:33.203Z,27.23
2022-09-12T19:24:03.678Z,24.65
2022-09-12T19:26:32.347Z,25.75
2022-09-12T19:29:00.220Z,23.35
2022-09-12T19:31:27.857Z,25.95
2022-09-12T19:34:02.754Z,23.75
2022-09-12T19:36:47.294Z,22.67
2022-09-12T19:39:17.522Z,23.45
2022-09-12T19:41:45.817Z,32.55
2022-09-12T19:44:13.620Z,21.40
2022-09-12T19:46:42.002Z,23.20
2022-09-12T19:49:10.948Z,24.15
2022-09-12T19:51:38.678Z,24.88
2022-09-12T19:54:07.974Z,25.90
2022-09-12T19:56:35.814Z,27.80
2022-09-12T19:59:04.185Z,26.33
2022-09-12T20:01:32.805Z,23.20
2022-09-12T20:04:00.299Z,24.00
2022-09-12T20:06:28.100Z,24.13
2022-09-12T20:08:56.454Z,25.60
2022-09-12T20:11:24.662Z,23.20
2022-09-12T20:13:52.863Z,27.42
2022-09-12T20:16:25.290Z,26.42
2022-09-12T20:19:07.268Z,25.15
2022-09-12T20:21:36.768Z,23.08
2022-09-12T20:24:07.187Z,21.80
2022-09-12T20:26:36.435Z,26.33
2022-09-12T20:29:05.525Z,27.98
2022-09-12T20:31:34.178Z,27.33
2022-09-12T20:34:03.224Z,31.13
2022-09-12T20:36:30.743Z,31.27
2022-09-12T20:39:01.479Z,29.02
2022-09-12T20:41:32.969Z,26.98
2022-09-12T20:44:00.666Z,28.73
2022-09-12T20:46:29.071Z,29.33
2022-09-12T20:48:57.138Z,28.70
2022-09-12T20:51:27.022Z,27.40
2022-09-12T20:53:59.031Z,26.48
2022-09-12T20:56:28.633Z,29.50
2022-09-12T20:58:56.301Z,36.15
2022-09-12T21:01:24.673Z,39.30
2022-09-12T21:03:53.220Z,30.55
2022-09-12T21:06:21.211Z,34.92
2022-09-12T21:08:49.504Z,37.00
2022-09-12T21:11:18.301Z,47.65
2022-09-12T21:13:46.643Z,45.08
2022-09-12T21:16:16.970Z,50.47
2022-09-12T21:18:46.426Z,36.03
2022-09-12T21:21:15.495Z,44.78
2022-09-12T21:23:42.945Z,50.05
2022-09-12T21:26:10.616Z,43.00
2022-09-12T21:28:38.042Z,139.57
2022-09-12T21:31:05.814Z,167.05
2022-09-12T21:33:33.535Z,82.90
2022-09-12T21:36:05.577Z,153.50
2022-09-12T21:38:33.461Z,113.13
2022-09-12T21:41:12.435Z,118.97
2022-09-12T21:43:40.590Z,123.30
2022-09-12T21:46:08.642Z,95.03
2022-09-12T21:48:36.654Z,221.32
2022-09-12T21:51:04.901Z,172.85
2022-09-12T21:53:32.451Z,154.38
2022-09-12T21:56:08.357Z,145.50
2022-09-12T21:58:37.273Z,160.38
2022-09-12T22:01:06.288Z,138.30
2022-09-12T22:03:34.783Z,104.82
2022-09-12T22:06:04.946Z,76.30
2022-09-12T22:08:33.836Z,168.50
2022-09-12T22:11:03.143Z,153.85
2022-09-12T22:13:32.384Z,101.72
2022-09-12T22:16:03.715Z,162.15
2022-09-12T22:18:35.693Z,110.65
2022-09-12T22:21:09.002Z,155.43
2022-09-12T22:23:55.359Z,179.75
2022-09-12T22:26:23.236Z,208.32
2022-09-12T22:28:50.959Z,269.95
2022-09-12T22:31:18.373Z,76.47
2022-09-12T22:33:45.895Z,54.58
2022-09-12T22:36:13.704Z,58.00
2022-09-12T22:38:41.266Z,49.53
2022-09-12T22:41:11.434Z,52.17
2022-09-12T22:43:39.145Z,54.28
2022-09-12T22:46:12.541Z,59.72
2022-09-12T22:48:40.809Z,60.03
2022-09-12T22:51:09.264Z,50.28
2022-09-12T22:53:37.753Z,46.72
2022-09-12T22:56:06.061Z,41.25
2022-09-12T22:58:37.654Z,55.38
2022-09-12T23:01:06.486Z,45.85
2022-09-12T23:03:34.525Z,52.20
2022-09-12T23:06:02.751Z,48.53
2022-09-12T23:08:30.714Z,44.60
2022-09-12T23:11:02.462Z,82.38
2022-09-12T23:13:29.989Z,53.05
2022-09-12T23:15:58.920Z,143.20
2022-09-12T23:18:26.805Z,190.60
2022-09-12T23:21:04.029Z,185.95
2022-09-12T23:23:31.793Z,133.70
2022-09-12T23:26:19.355Z,191.95
2022-09-12T23:28:55.027Z,118.45
2022-09-12T23:31:23.900Z,121.82
2022-09-12T23:33:55.669Z,216.27
2022-09-12T23:36:23.826Z,335.77
2022-09-12T23:38:51.884Z,413.63
2022-09-12T23:41:19.542Z,323.15
2022-09-12T23:43:47.387Z,298.50
2022-09-12T23:46:15.573Z,299.15
2022-09-12T23:48:43.808Z,306.88
2022-09-12T23:51:11.593Z,336.90
2022-09-12T23:53:39.733Z,423.50
2022-09-12T23:56:07.720Z,430.48
2022-09-12T23:58:35.168Z,362.83
